sensor_id;sensor_type;location;lat;lon;timestamp;pressure;altitude;pressure_sealevel;temperature;humidity
56821;BME280;42702;50.178;20.992;2022-11-30T00:01:23;100298.90;;;0.69;77.35
56821;BME280;42702;50.178;20.992;2022-11-30T00:03:53;100301.72;;;0.71;77.40
56821;BME280;42702;50.178;20.992;2022-11-30T00:06:22;100299.17;;;0.71;77.30
56821;BME280;42702;50.178;20.992;2022-11-30T00:08:52;100300.81;;;0.66;77.12
56821;BME280;42702;50.178;20.992;2022-11-30T00:11:21;100305.90;;;0.59;77.10
56821;BME280;42702;50.178;20.992;2022-11-30T00:13:50;100308.63;;;0.54;77.17
56821;BME280;42702;50.178;20.992;2022-11-30T00:16:18;100311.09;;;0.56;77.37
56821;BME280;42702;50.178;20.992;2022-11-30T00:18:46;100310.38;;;0.59;77.31
56821;BME280;42702;50.178;20.992;2022-11-30T00:21:16;100311.95;;;0.66;77.09
56821;BME280;42702;50.178;20.992;2022-11-30T00:23:46;100312.27;;;0.69;77.19
56821;BME280;42702;50.178;20.992;2022-11-30T00:26:17;100309.95;;;0.67;77.44
56821;BME280;42702;50.178;20.992;2022-11-30T00:28:45;100308.66;;;0.69;77.57
56821;BME280;42702;50.178;20.992;2022-11-30T00:31:16;100307.48;;;0.69;77.29
56821;BME280;42702;50.178;20.992;2022-11-30T00:33:45;100308.70;;;0.70;77.04
56821;BME280;42702;50.178;20.992;2022-11-30T00:36:18;100307.80;;;0.65;76.89
56821;BME280;42702;50.178;20.992;2022-11-30T00:38:48;100302.45;;;0.62;77.23
56821;BME280;42702;50.178;20.992;2022-11-30T00:41:18;100308.55;;;0.60;77.03
56821;BME280;42702;50.178;20.992;2022-11-30T00:43:46;100308.84;;;0.62;76.97
56821;BME280;42702;50.178;20.992;2022-11-30T00:46:14;100316.50;;;0.61;76.94
56821;BME280;42702;50.178;20.992;2022-11-30T00:48:42;100312.64;;;0.63;77.31
56821;BME280;42702;50.178;20.992;2022-11-30T00:51:11;100313.13;;;0.62;77.28
56821;BME280;42702;50.178;20.992;2022-11-30T00:53:40;100315.83;;;0.65;77.24
56821;BME280;42702;50.178;20.992;2022-11-30T00:56:09;100318.23;;;0.62;77.32
56821;BME280;42702;50.178;20.992;2022-11-30T00:58:37;100321.19;;;0.62;77.44
56821;BME280;42702;50.178;20.992;2022-11-30T01:01:06;100326.38;;;0.63;77.19
56821;BME280;42702;50.178;20.992;2022-11-30T01:03:35;100329.55;;;0.62;77.25
56821;BME280;42702;50.178;20.992;2022-11-30T01:06:06;100330.60;;;0.69;77.23
56821;BME280;42702;50.178;20.992;2022-11-30T01:08:35;100328.27;;;0.73;77.07
56821;BME280;42702;50.178;20.992;2022-11-30T01:11:15;100330.29;;;0.72;77.24
56821;BME280;42702;50.178;20.992;2022-11-30T01:13:44;100332.02;;;0.73;77.11
56821;BME280;42702;50.178;20.992;2022-11-30T01:16:15;100329.02;;;0.71;77.31
56821;BME280;42702;50.178;20.992;2022-11-30T01:18:45;100330.23;;;0.75;77.35
56821;BME280;42702;50.178;20.992;2022-11-30T01:21:15;100325.17;;;0.77;77.45
56821;BME280;42702;50.178;20.992;2022-11-30T01:23:44;100325.55;;;0.77;77.25
56821;BME280;42702;50.178;20.992;2022-11-30T01:26:13;100328.80;;;0.73;76.98
56821;BME280;42702;50.178;20.992;2022-11-30T01:28:41;100325.11;;;0.68;76.87
56821;BME280;42702;50.178;20.992;2022-11-30T01:31:12;100324.44;;;0.69;76.76
56821;BME280;42702;50.178;20.992;2022-11-30T01:33:42;100323.98;;;0.67;76.91
56821;BME280;42702;50.178;20.992;2022-11-30T01:36:12;100328.13;;;0.60;76.98
56821;BME280;42702;50.178;20.992;2022-11-30T01:38:54;100325.43;;;0.54;76.93
56821;BME280;42702;50.178;20.992;2022-11-30T01:41:23;100328.84;;;0.54;77.12
56821;BME280;42702;50.178;20.992;2022-11-30T01:43:55;100328.65;;;0.51;77.46
56821;BME280;42702;50.178;20.992;2022-11-30T01:49:29;100325.63;;;0.45;77.42
56821;BME280;42702;50.178;20.992;2022-11-30T01:57:45;100336.05;;;0.48;77.24
56821;BME280;42702;50.178;20.992;2022-11-30T02:00:15;100333.23;;;0.46;77.50
56821;BME280;42702;50.178;20.992;2022-11-30T02:03:07;100326.73;;;0.50;77.85
56821;BME280;42702;50.178;20.992;2022-11-30T02:05:39;100328.70;;;0.54;77.88
56821;BME280;42702;50.178;20.992;2022-11-30T02:08:09;100328.59;;;0.49;77.52
56821;BME280;42702;50.178;20.992;2022-11-30T02:10:40;100330.61;;;0.51;78.03
56821;BME280;42702;50.178;20.992;2022-11-30T02:22:16;100334.79;;;0.66;77.60
56821;BME280;42702;50.178;20.992;2022-11-30T02:30:48;100341.44;;;0.52;77.57
56821;BME280;42702;50.178;20.992;2022-11-30T02:33:22;100342.10;;;0.49;77.66
56821;BME280;42702;50.178;20.992;2022-11-30T02:35:53;100337.59;;;0.51;77.42
56821;BME280;42702;50.178;20.992;2022-11-30T02:38:24;100340.05;;;0.49;77.58
56821;BME280;42702;50.178;20.992;2022-11-30T02:40:53;100338.89;;;0.49;77.85
56821;BME280;42702;50.178;20.992;2022-11-30T02:43:23;100341.89;;;0.54;77.89
56821;BME280;42702;50.178;20.992;2022-11-30T02:46:22;100344.13;;;0.54;77.80
56821;BME280;42702;50.178;20.992;2022-11-30T02:49:01;100347.45;;;0.56;77.94
56821;BME280;42702;50.178;20.992;2022-11-30T02:51:34;100346.09;;;0.56;77.79
56821;BME280;42702;50.178;20.992;2022-11-30T02:54:04;100346.02;;;0.55;77.57
56821;BME280;42702;50.178;20.992;2022-11-30T02:56:33;100344.95;;;0.57;77.29
56821;BME280;42702;50.178;20.992;2022-11-30T02:59:01;100346.80;;;0.53;77.12
56821;BME280;42702;50.178;20.992;2022-11-30T03:01:29;100349.41;;;0.47;77.48
56821;BME280;42702;50.178;20.992;2022-11-30T03:03:57;100347.91;;;0.45;77.40
56821;BME280;42702;50.178;20.992;2022-11-30T03:06:25;100347.48;;;0.43;77.50
56821;BME280;42702;50.178;20.992;2022-11-30T03:08:53;100345.58;;;0.40;77.40
56821;BME280;42702;50.178;20.992;2022-11-30T03:11:21;100348.44;;;0.38;77.64
56821;BME280;42702;50.178;20.992;2022-11-30T03:13:49;100349.13;;;0.38;77.75
56821;BME280;42702;50.178;20.992;2022-11-30T03:16:17;100345.80;;;0.44;77.87
56821;BME280;42702;50.178;20.992;2022-11-30T03:18:45;100346.84;;;0.54;77.48
56821;BME280;42702;50.178;20.992;2022-11-30T03:21:13;100345.69;;;0.58;77.48
56821;BME280;42702;50.178;20.992;2022-11-30T03:23:42;100343.67;;;0.56;77.25
56821;BME280;42702;50.178;20.992;2022-11-30T03:26:10;100345.38;;;0.55;77.69
56821;BME280;42702;50.178;20.992;2022-11-30T03:28:38;100344.57;;;0.57;77.54
56821;BME280;42702;50.178;20.992;2022-11-30T03:31:10;100344.69;;;0.55;77.54
56821;BME280;42702;50.178;20.992;2022-11-30T03:33:40;100344.52;;;0.59;77.48
56821;BME280;42702;50.178;20.992;2022-11-30T03:36:10;100351.04;;;0.59;77.30
56821;BME280;42702;50.178;20.992;2022-11-30T03:38:39;100350.11;;;0.61;77.66
56821;BME280;42702;50.178;20.992;2022-11-30T03:41:10;100355.30;;;0.65;77.62
56821;BME280;42702;50.178;20.992;2022-11-30T03:43:39;100357.95;;;0.73;77.05
56821;BME280;42702;50.178;20.992;2022-11-30T03:46:08;100361.52;;;0.72;77.02
56821;BME280;42702;50.178;20.992;2022-11-30T03:48:36;100364.86;;;0.68;77.46
56821;BME280;42702;50.178;20.992;2022-11-30T03:51:05;100370.67;;;0.71;77.52
56821;BME280;42702;50.178;20.992;2022-11-30T03:53:34;100373.13;;;0.71;77.42
56821;BME280;42702;50.178;20.992;2022-11-30T03:56:04;100371.38;;;0.71;77.25
56821;BME280;42702;50.178;20.992;2022-11-30T03:58:33;100375.58;;;0.69;77.37
56821;BME280;42702;50.178;20.992;2022-11-30T04:01:19;100375.38;;;0.65;77.27
56821;BME280;42702;50.178;20.992;2022-11-30T04:03:51;100378.55;;;0.60;77.07
56821;BME280;42702;50.178;20.992;2022-11-30T04:06:20;100380.89;;;0.59;77.02
56821;BME280;42702;50.178;20.992;2022-11-30T04:08:48;100375.69;;;0.65;76.89
56821;BME280;42702;50.178;20.992;2022-11-30T04:11:17;100370.68;;;0.64;77.11
56821;BME280;42702;50.178;20.992;2022-11-30T04:13:45;100373.38;;;0.66;77.16
56821;BME280;42702;50.178;20.992;2022-11-30T04:16:19;100371.16;;;0.70;77.26
56821;BME280;42702;50.178;20.992;2022-11-30T04:18:47;100370.84;;;0.73;77.35
56821;BME280;42702;50.178;20.992;2022-11-30T04:21:15;100371.05;;;0.75;77.25
56821;BME280;42702;50.178;20.992;2022-11-30T04:23:43;100377.11;;;0.76;77.14
56821;BME280;42702;50.178;20.992;2022-11-30T04:26:13;100375.95;;;0.77;77.19
56821;BME280;42702;50.178;20.992;2022-11-30T04:28:41;100378.14;;;0.76;77.31
56821;BME280;42702;50.178;20.992;2022-11-30T04:31:11;100383.79;;;0.79;77.19
56821;BME280;42702;50.178;20.992;2022-11-30T04:33:39;100385.13;;;0.85;76.87
56821;BME280;42702;50.178;20.992;2022-11-30T04:36:15;100386.31;;;0.84;76.72
56821;BME280;42702;50.178;20.992;2022-11-30T04:38:44;100390.80;;;0.78;76.55
56821;BME280;42702;50.178;20.992;2022-11-30T04:41:13;100395.13;;;0.72;76.82
56821;BME280;42702;50.178;20.992;2022-11-30T04:43:41;100392.20;;;0.65;76.56
56821;BME280;42702;50.178;20.992;2022-11-30T04:46:09;100393.55;;;0.58;76.63
56821;BME280;42702;50.178;20.992;2022-11-30T04:48:37;100397.82;;;0.54;77.04
56821;BME280;42702;50.178;20.992;2022-11-30T04:51:07;100397.83;;;0.51;76.96
56821;BME280;42702;50.178;20.992;2022-11-30T04:53:36;100399.92;;;0.52;77.29
56821;BME280;42702;50.178;20.992;2022-11-30T04:56:06;100406.34;;;0.57;77.36
56821;BME280;42702;50.178;20.992;2022-11-30T04:58:35;100406.33;;;0.67;77.26
56821;BME280;42702;50.178;20.992;2022-11-30T05:01:03;100408.61;;;0.71;77.08
56821;BME280;42702;50.178;20.992;2022-11-30T05:03:31;100409.44;;;0.73;77.13
56821;BME280;42702;50.178;20.992;2022-11-30T05:06:00;100407.55;;;0.77;77.12
56821;BME280;42702;50.178;20.992;2022-11-30T05:08:28;100415.50;;;0.81;77.01
56821;BME280;42702;50.178;20.992;2022-11-30T05:10:57;100414.75;;;0.80;77.00
56821;BME280;42702;50.178;20.992;2022-11-30T05:13:25;100417.69;;;0.77;76.95
56821;BME280;42702;50.178;20.992;2022-11-30T05:15:53;100414.05;;;0.70;76.82
56821;BME280;42702;50.178;20.992;2022-11-30T05:18:22;100413.66;;;0.63;76.60
56821;BME280;42702;50.178;20.992;2022-11-30T05:20:51;100414.34;;;0.59;76.82
56821;BME280;42702;50.178;20.992;2022-11-30T05:23:20;100418.77;;;0.65;76.97
56821;BME280;42702;50.178;20.992;2022-11-30T05:25:48;100415.83;;;0.68;76.86
56821;BME280;42702;50.178;20.992;2022-11-30T05:28:17;100417.98;;;0.69;77.29
56821;BME280;42702;50.178;20.992;2022-11-30T05:30:45;100417.86;;;0.70;77.13
56821;BME280;42702;50.178;20.992;2022-11-30T05:33:13;100421.47;;;0.74;77.16
56821;BME280;42702;50.178;20.992;2022-11-30T05:35:42;100417.17;;;0.77;77.25
56821;BME280;42702;50.178;20.992;2022-11-30T05:38:10;100421.66;;;0.81;77.00
56821;BME280;42702;50.178;20.992;2022-11-30T05:40:38;100421.52;;;0.81;77.25
56821;BME280;42702;50.178;20.992;2022-11-30T05:43:06;100423.38;;;0.81;76.89
56821;BME280;42702;50.178;20.992;2022-11-30T05:45:34;100422.52;;;0.81;77.07
56821;BME280;42702;50.178;20.992;2022-11-30T05:48:02;100422.79;;;0.86;76.75
56821;BME280;42702;50.178;20.992;2022-11-30T05:50:30;100423.98;;;0.89;76.95
56821;BME280;42702;50.178;20.992;2022-11-30T05:52:59;100424.63;;;0.88;76.81
56821;BME280;42702;50.178;20.992;2022-11-30T05:55:28;100428.15;;;0.87;76.75
56821;BME280;42702;50.178;20.992;2022-11-30T05:57:56;100426.80;;;0.87;76.75
56821;BME280;42702;50.178;20.992;2022-11-30T06:00:25;100429.37;;;0.87;76.78
56821;BME280;42702;50.178;20.992;2022-11-30T06:02:56;100435.30;;;0.86;76.75
56821;BME280;42702;50.178;20.992;2022-11-30T06:05:26;100438.57;;;0.83;76.61
56821;BME280;42702;50.178;20.992;2022-11-30T06:07:57;100443.20;;;0.76;76.42
56821;BME280;42702;50.178;20.992;2022-11-30T06:10:26;100445.63;;;0.70;76.76
56821;BME280;42702;50.178;20.992;2022-11-30T06:12:54;100439.82;;;0.67;76.37
56821;BME280;42702;50.178;20.992;2022-11-30T06:15:22;100443.17;;;0.66;76.15
56821;BME280;42702;50.178;20.992;2022-11-30T06:17:50;100442.55;;;0.60;76.38
56821;BME280;42702;50.178;20.992;2022-11-30T06:20:18;100443.80;;;0.61;76.89
56821;BME280;42702;50.178;20.992;2022-11-30T06:22:46;100446.66;;;0.64;77.04
56821;BME280;42702;50.178;20.992;2022-11-30T06:25:14;100445.78;;;0.67;77.11
56821;BME280;42702;50.178;20.992;2022-11-30T06:27:42;100447.48;;;0.63;76.62
56821;BME280;42702;50.178;20.992;2022-11-30T06:30:11;100443.39;;;0.53;76.62
56821;BME280;42702;50.178;20.992;2022-11-30T06:32:43;100439.73;;;0.46;76.66
56821;BME280;42702;50.178;20.992;2022-11-30T06:35:12;100440.75;;;0.39;76.67
56821;BME280;42702;50.178;20.992;2022-11-30T06:37:41;100440.90;;;0.39;76.88
56821;BME280;42702;50.178;20.992;2022-11-30T06:40:11;100439.55;;;0.39;76.53
56821;BME280;42702;50.178;20.992;2022-11-30T06:42:39;100439.48;;;0.41;77.07
56821;BME280;42702;50.178;20.992;2022-11-30T06:45:08;100441.34;;;0.44;77.02
56821;BME280;42702;50.178;20.992;2022-11-30T06:47:36;100442.44;;;0.48;76.95
56821;BME280;42702;50.178;20.992;2022-11-30T06:50:05;100440.84;;;0.54;77.22
56821;BME280;42702;50.178;20.992;2022-11-30T06:52:34;100443.34;;;0.59;77.20
56821;BME280;42702;50.178;20.992;2022-11-30T06:55:03;100442.45;;;0.62;77.08
56821;BME280;42702;50.178;20.992;2022-11-30T06:57:31;100445.78;;;0.63;76.93
56821;BME280;42702;50.178;20.992;2022-11-30T06:59:59;100444.27;;;0.64;77.11
56821;BME280;42702;50.178;20.992;2022-11-30T07:02:27;100449.23;;;0.64;76.75
56821;BME280;42702;50.178;20.992;2022-11-30T07:04:55;100447.98;;;0.66;76.48
56821;BME280;42702;50.178;20.992;2022-11-30T07:07:24;100449.11;;;0.68;76.48
56821;BME280;42702;50.178;20.992;2022-11-30T07:09:52;100449.33;;;0.69;76.68
56821;BME280;42702;50.178;20.992;2022-11-30T07:12:20;100452.68;;;0.70;76.89
56821;BME280;42702;50.178;20.992;2022-11-30T07:14:48;100453.38;;;0.74;76.74
56821;BME280;42702;50.178;20.992;2022-11-30T07:17:19;100453.81;;;0.72;76.35
56821;BME280;42702;50.178;20.992;2022-11-30T07:19:47;100450.95;;;0.70;76.51
56821;BME280;42702;50.178;20.992;2022-11-30T07:22:15;100451.02;;;0.71;76.57
56821;BME280;42702;50.178;20.992;2022-11-30T07:24:43;100451.15;;;0.74;76.60
56821;BME280;42702;50.178;20.992;2022-11-30T07:27:30;100452.88;;;0.71;76.50
56821;BME280;42702;50.178;20.992;2022-11-30T07:29:58;100451.06;;;0.66;76.37
56821;BME280;42702;50.178;20.992;2022-11-30T07:32:26;100450.52;;;0.71;76.19
56821;BME280;42702;50.178;20.992;2022-11-30T07:34:54;100453.10;;;0.75;76.31
56821;BME280;42702;50.178;20.992;2022-11-30T07:37:22;100463.23;;;0.75;76.41
56821;BME280;42702;50.178;20.992;2022-11-30T07:39:51;100463.23;;;0.72;76.31
56821;BME280;42702;50.178;20.992;2022-11-30T07:42:19;100463.73;;;0.68;76.27
56821;BME280;42702;50.178;20.992;2022-11-30T07:44:48;100462.61;;;0.64;76.28
56821;BME280;42702;50.178;20.992;2022-11-30T07:47:25;100464.04;;;0.64;76.59
56821;BME280;42702;50.178;20.992;2022-11-30T07:49:53;100457.16;;;0.68;77.08
56821;BME280;42702;50.178;20.992;2022-11-30T07:52:21;100458.38;;;0.71;76.84
56821;BME280;42702;50.178;20.992;2022-11-30T07:54:49;100458.77;;;0.75;76.62
56821;BME280;42702;50.178;20.992;2022-11-30T07:57:17;100457.58;;;0.79;76.49
56821;BME280;42702;50.178;20.992;2022-11-30T07:59:45;100455.28;;;0.84;76.23
56821;BME280;42702;50.178;20.992;2022-11-30T08:02:14;100454.85;;;0.86;76.10
56821;BME280;42702;50.178;20.992;2022-11-30T08:04:42;100458.15;;;0.86;76.19
56821;BME280;42702;50.178;20.992;2022-11-30T08:07:14;100455.04;;;0.86;76.45
56821;BME280;42702;50.178;20.992;2022-11-30T08:09:42;100456.13;;;0.90;76.48
56821;BME280;42702;50.178;20.992;2022-11-30T08:12:11;100456.11;;;0.93;76.43
56821;BME280;42702;50.178;20.992;2022-11-30T08:14:40;100458.45;;;0.95;76.20
56821;BME280;42702;50.178;20.992;2022-11-30T08:17:28;100457.07;;;0.95;76.12
56821;BME280;42702;50.178;20.992;2022-11-30T08:19:56;100455.89;;;0.96;76.35
56821;BME280;42702;50.178;20.992;2022-11-30T08:22:24;100456.21;;;0.95;75.86
56821;BME280;42702;50.178;20.992;2022-11-30T08:24:52;100456.55;;;0.95;76.25
56821;BME280;42702;50.178;20.992;2022-11-30T08:27:20;100458.15;;;0.97;76.12
56821;BME280;42702;50.178;20.992;2022-11-30T08:29:48;100455.14;;;1.01;75.71
56821;BME280;42702;50.178;20.992;2022-11-30T08:32:16;100458.01;;;1.00;75.80
56821;BME280;42702;50.178;20.992;2022-11-30T08:34:45;100456.21;;;1.02;76.22
56821;BME280;42702;50.178;20.992;2022-11-30T08:37:14;100460.65;;;1.05;76.05
56821;BME280;42702;50.178;20.992;2022-11-30T08:39:42;100462.67;;;1.08;76.19
56821;BME280;42702;50.178;20.992;2022-11-30T08:42:10;100462.39;;;1.09;75.98
56821;BME280;42702;50.178;20.992;2022-11-30T08:44:39;100463.22;;;1.08;76.11
56821;BME280;42702;50.178;20.992;2022-11-30T08:47:07;100465.88;;;1.03;75.64
56821;BME280;42702;50.178;20.992;2022-11-30T08:49:35;100469.12;;;0.99;75.89
56821;BME280;42702;50.178;20.992;2022-11-30T08:52:03;100465.98;;;0.99;76.03
56821;BME280;42702;50.178;20.992;2022-11-30T08:54:47;100461.95;;;0.97;75.66
56821;BME280;42702;50.178;20.992;2022-11-30T08:57:18;100462.84;;;1.01;75.92
56821;BME280;42702;50.178;20.992;2022-11-30T08:59:47;100460.85;;;1.02;75.95
56821;BME280;42702;50.178;20.992;2022-11-30T09:02:17;100459.27;;;1.02;75.89
56821;BME280;42702;50.178;20.992;2022-11-30T09:04:47;100457.41;;;0.95;75.71
56821;BME280;42702;50.178;20.992;2022-11-30T09:07:16;100457.41;;;0.88;75.47
56821;BME280;42702;50.178;20.992;2022-11-30T09:09:45;100456.36;;;0.85;75.64
56821;BME280;42702;50.178;20.992;2022-11-30T09:12:13;100457.17;;;0.84;76.17
56821;BME280;42702;50.178;20.992;2022-11-30T09:14:41;100456.11;;;0.87;76.39
56821;BME280;42702;50.178;20.992;2022-11-30T09:17:09;100458.17;;;0.90;76.25
56821;BME280;42702;50.178;20.992;2022-11-30T09:19:38;100459.34;;;0.92;76.20
56821;BME280;42702;50.178;20.992;2022-11-30T09:22:06;100462.29;;;0.97;76.39
56821;BME280;42702;50.178;20.992;2022-11-30T09:24:34;100465.15;;;1.05;75.90
56821;BME280;42702;50.178;20.992;2022-11-30T09:27:02;100465.23;;;1.11;75.93
56821;BME280;42702;50.178;20.992;2022-11-30T09:29:30;100466.58;;;1.10;75.70
56821;BME280;42702;50.178;20.992;2022-11-30T09:31:59;100464.48;;;1.10;75.78
56821;BME280;42702;50.178;20.992;2022-11-30T09:34:27;100466.35;;;1.09;75.77
56821;BME280;42702;50.178;20.992;2022-11-30T09:36:55;100465.05;;;1.07;75.84
56821;BME280;42702;50.178;20.992;2022-11-30T09:39:23;100465.93;;;1.04;75.85
56821;BME280;42702;50.178;20.992;2022-11-30T09:42:45;100460.82;;;0.98;75.56
56821;BME280;42702;50.178;20.992;2022-11-30T09:45:27;100458.95;;;0.92;75.85
56821;BME280;42702;50.178;20.992;2022-11-30T09:50:28;100459.38;;;0.87;75.95
56821;BME280;42702;50.178;20.992;2022-11-30T09:53:05;100456.88;;;0.95;75.90
56821;BME280;42702;50.178;20.992;2022-11-30T09:55:41;100455.33;;;1.02;75.96
56821;BME280;42702;50.178;20.992;2022-11-30T09:58:47;100457.04;;;1.05;76.01
56821;BME280;42702;50.178;20.992;2022-11-30T10:01:19;100453.85;;;1.06;76.02
56821;BME280;42702;50.178;20.992;2022-11-30T10:03:48;100455.69;;;1.05;75.84
56821;BME280;42702;50.178;20.992;2022-11-30T10:06:21;100457.80;;;1.03;75.81
56821;BME280;42702;50.178;20.992;2022-11-30T10:14:22;100444.48;;;1.01;76.25
56821;BME280;42702;50.178;20.992;2022-11-30T10:28:03;100449.27;;;1.28;76.09
56821;BME280;42702;50.178;20.992;2022-11-30T10:30:53;100445.63;;;1.27;75.86
56821;BME280;42702;50.178;20.992;2022-11-30T10:33:26;100444.67;;;1.28;75.88
56821;BME280;42702;50.178;20.992;2022-11-30T10:36:10;100440.93;;;1.29;75.86
56821;BME280;42702;50.178;20.992;2022-11-30T10:38:41;100440.80;;;1.30;75.82
56821;BME280;42702;50.178;20.992;2022-11-30T10:41:15;100440.36;;;1.31;75.78
56821;BME280;42702;50.178;20.992;2022-11-30T10:43:46;100435.23;;;1.32;75.92
56821;BME280;42702;50.178;20.992;2022-11-30T10:46:29;100430.86;;;1.34;75.84
56821;BME280;42702;50.178;20.992;2022-11-30T10:49:14;100432.62;;;1.42;75.56
56821;BME280;42702;50.178;20.992;2022-11-30T10:51:53;100433.84;;;1.46;75.59
56821;BME280;42702;50.178;20.992;2022-11-30T10:54:23;100430.33;;;1.47;75.67
56821;BME280;42702;50.178;20.992;2022-11-30T10:56:51;100428.46;;;1.51;75.76
56821;BME280;42702;50.178;20.992;2022-11-30T10:59:25;100429.92;;;1.53;75.58
56821;BME280;42702;50.178;20.992;2022-11-30T11:01:56;100431.77;;;1.52;75.72
56821;BME280;42702;50.178;20.992;2022-11-30T11:04:25;100427.85;;;1.53;75.81
56821;BME280;42702;50.178;20.992;2022-11-30T11:07:13;100429.30;;;1.55;75.70
56821;BME280;42702;50.178;20.992;2022-11-30T11:09:47;100430.11;;;1.54;75.36
56821;BME280;42702;50.178;20.992;2022-11-30T11:12:20;100431.35;;;1.47;75.25
56821;BME280;42702;50.178;20.992;2022-11-30T11:15:08;100426.73;;;1.37;75.14
56821;BME280;42702;50.178;20.992;2022-11-30T11:17:41;100422.20;;;1.36;75.71
56821;BME280;42702;50.178;20.992;2022-11-30T11:22:58;100423.39;;;1.46;75.45
56821;BME280;42702;50.178;20.992;2022-11-30T11:25:30;100425.88;;;1.48;75.55
56821;BME280;42702;50.178;20.992;2022-11-30T11:28:04;100425.86;;;1.51;75.57
56821;BME280;42702;50.178;20.992;2022-11-30T11:30:36;100428.25;;;1.54;75.70
56821;BME280;42702;50.178;20.992;2022-11-30T11:35:43;100428.16;;;1.52;75.34
56821;BME280;42702;50.178;20.992;2022-11-30T11:43:25;100419.79;;;1.36;75.03
56821;BME280;42702;50.178;20.992;2022-11-30T11:45:57;100421.08;;;1.27;75.26
56821;BME280;42702;50.178;20.992;2022-11-30T11:48:35;100418.52;;;1.27;75.41
56821;BME280;42702;50.178;20.992;2022-11-30T11:51:07;100420.05;;;1.34;75.42
56821;BME280;42702;50.178;20.992;2022-11-30T11:53:40;100421.23;;;1.34;75.15
56821;BME280;42702;50.178;20.992;2022-11-30T11:56:24;100420.60;;;1.31;75.28
56821;BME280;42702;50.178;20.992;2022-11-30T11:59:00;100416.02;;;1.32;75.55
56821;BME280;42702;50.178;20.992;2022-11-30T12:07:12;100419.08;;;1.46;75.42
56821;BME280;42702;50.178;20.992;2022-11-30T12:13:19;100422.12;;;1.48;75.31
56821;BME280;42702;50.178;20.992;2022-11-30T12:26:58;100424.04;;;1.45;74.98
56821;BME280;42702;50.178;20.992;2022-11-30T12:29:43;100418.05;;;1.46;75.20
56821;BME280;42702;50.178;20.992;2022-11-30T12:38:09;100416.17;;;1.49;75.20
56821;BME280;42702;50.178;20.992;2022-11-30T12:43:52;100413.52;;;1.48;75.41
56821;BME280;42702;50.178;20.992;2022-11-30T12:49:20;100414.52;;;1.48;75.55
56821;BME280;42702;50.178;20.992;2022-11-30T12:52:19;100415.27;;;1.49;75.18
56821;BME280;42702;50.178;20.992;2022-11-30T12:57:35;100412.59;;;1.46;75.01
56821;BME280;42702;50.178;20.992;2022-11-30T13:00:27;100414.00;;;1.47;75.11
56821;BME280;42702;50.178;20.992;2022-11-30T13:05:37;100412.23;;;1.50;75.34
56821;BME280;42702;50.178;20.992;2022-11-30T13:08:17;100412.81;;;1.48;75.21
56821;BME280;42702;50.178;20.992;2022-11-30T13:11:00;100413.08;;;1.46;75.00
56821;BME280;42702;50.178;20.992;2022-11-30T13:13:32;100413.58;;;1.39;75.17
56821;BME280;42702;50.178;20.992;2022-11-30T13:16:03;100412.60;;;1.37;75.38
56821;BME280;42702;50.178;20.992;2022-11-30T13:18:32;100412.30;;;1.37;75.51
56821;BME280;42702;50.178;20.992;2022-11-30T13:21:19;100412.63;;;1.37;75.56
56821;BME280;42702;50.178;20.992;2022-11-30T13:27:14;100415.23;;;1.48;75.20
56821;BME280;42702;50.178;20.992;2022-11-30T13:32:23;100408.99;;;1.51;75.50
56821;BME280;42702;50.178;20.992;2022-11-30T13:41:03;100413.96;;;1.50;75.55
56821;BME280;42702;50.178;20.992;2022-11-30T13:43:50;100414.41;;;1.49;75.46
56821;BME280;42702;50.178;20.992;2022-11-30T13:46:20;100414.27;;;1.46;75.32
56821;BME280;42702;50.178;20.992;2022-11-30T13:49:33;100414.00;;;1.40;75.57
56821;BME280;42702;50.178;20.992;2022-11-30T13:52:03;100418.63;;;1.44;75.31
56821;BME280;42702;50.178;20.992;2022-11-30T13:54:51;100416.48;;;1.49;75.23
56821;BME280;42702;50.178;20.992;2022-11-30T13:59:58;100412.42;;;1.47;75.46
56821;BME280;42702;50.178;20.992;2022-11-30T14:10:36;100406.38;;;1.53;75.56
56821;BME280;42702;50.178;20.992;2022-11-30T14:13:28;100416.30;;;1.49;75.51
56821;BME280;42702;50.178;20.992;2022-11-30T14:15:58;100417.45;;;1.48;75.51
56821;BME280;42702;50.178;20.992;2022-11-30T14:18:40;100410.55;;;1.51;75.72
56821;BME280;42702;50.178;20.992;2022-11-30T14:24:02;100404.73;;;1.62;75.33
56821;BME280;42702;50.178;20.992;2022-11-30T14:26:39;100411.40;;;1.61;75.64
56821;BME280;42702;50.178;20.992;2022-11-30T14:29:17;100408.89;;;1.62;75.51
56821;BME280;42702;50.178;20.992;2022-11-30T14:34:19;100411.04;;;1.61;75.41
56821;BME280;42702;50.178;20.992;2022-11-30T14:36:55;100411.77;;;1.58;75.37
56821;BME280;42702;50.178;20.992;2022-11-30T14:41:54;100408.01;;;1.51;75.34
56821;BME280;42702;50.178;20.992;2022-11-30T14:44:22;100409.69;;;1.47;75.71
56821;BME280;42702;50.178;20.992;2022-11-30T14:46:50;100405.23;;;1.47;75.68
56821;BME280;42702;50.178;20.992;2022-11-30T14:49:21;100404.47;;;1.53;75.44
56821;BME280;42702;50.178;20.992;2022-11-30T14:51:59;100406.09;;;1.54;75.46
56821;BME280;42702;50.178;20.992;2022-11-30T14:55:03;100406.15;;;1.55;75.62
56821;BME280;42702;50.178;20.992;2022-11-30T15:00:47;100403.83;;;1.61;75.73
56821;BME280;42702;50.178;20.992;2022-11-30T15:05:52;100403.59;;;1.60;75.59
56821;BME280;42702;50.178;20.992;2022-11-30T15:08:22;100407.55;;;1.60;75.84
56821;BME280;42702;50.178;20.992;2022-11-30T15:10:52;100407.90;;;1.60;75.78
56821;BME280;42702;50.178;20.992;2022-11-30T15:13:23;100405.70;;;1.61;75.49
56821;BME280;42702;50.178;20.992;2022-11-30T15:15:53;100408.28;;;1.68;75.44
56821;BME280;42702;50.178;20.992;2022-11-30T15:18:23;100403.77;;;1.70;75.64
56821;BME280;42702;50.178;20.992;2022-11-30T15:20:59;100400.96;;;1.73;75.71